Terminal Aerodrome Forecast
Issued by NWS

Home | Current Version | Previous Version | Text Only | Print | Product List | Glossary On
Versions: 1 2 3 4 5 6 7 8 9 10 11 12 13 14 15 16 17 18 19
000
FTAK31 PAJN 162002 AAA
TAFAYA
TAF AMD
PAYA 162002Z 1620/1718 21004KT P6SM VCSH OVC050
      TEMPO 1620/1623 2SM -RA BR SCT015 BKN030
     FM170200 14007KT 6SM -RA BR OVC035
     FM170700 10004KT 4SM -RA BR BKN015 OVC025
      AMD LTD TO CLD VIS AND WIND=

USA.gov is the U.S. government's official web portal to all federal, state and local government web resources and services.